Terminal Aerodrome Forecast
Issued by NWS

Home | Current Version | Previous Version | Text Only | Print | Product List | Glossary On
Versions: 1 2 3 4 5 6 7 8 9 10 11 12 13 14
814
FTUS43 KGRB 301124
TAFMTW
TAF
KMTW 301124Z 3012/3112 26009KT P6SM SCT060
     FM301400 26013G20KT P6SM BKN060
     FM301900 26014G22KT P6SM -SHRA BKN040
     FM302200 26010G17KT P6SM BKN035
     FM310100 27006KT P6SM BKN045=

USA.gov is the U.S. government's official web portal to all federal, state and local government web resources and services.